createdAt,value
2018-11-22T00:00:23.716Z,95127.17
2018-11-22T00:02:54.370Z,95134.81
2018-11-22T00:05:23.346Z,95140.48
2018-11-22T12:17:38.760Z,95335.20
2018-11-22T12:20:09.100Z,95336.39
2018-11-22T12:22:38.860Z,95329.83
2018-11-22T12:25:09.770Z,95329.48
2018-11-22T12:27:39.422Z,95332.72
2018-11-22T12:30:11.922Z,95326.08
2018-11-22T12:32:47.965Z,95328.30
2018-11-22T12:35:25.139Z,95328.66
2018-11-22T12:37:59.351Z,95334.94
2018-11-22T12:40:28.482Z,95327.95
2018-11-22T12:42:57.876Z,95330.93
2018-11-22T12:45:27.538Z,95333.75
2018-11-22T12:47:56.969Z,95330.84
2018-11-22T12:50:26.333Z,95328.98
2018-11-22T12:52:55.606Z,95330.61
2018-11-22T12:55:24.816Z,95328.21
2018-11-22T12:57:54.712Z,95328.98
2018-11-22T13:00:23.973Z,95331.20
2018-11-22T13:02:53.233Z,95328.56
2018-11-22T13:05:22.619Z,95326.34
2018-11-22T13:07:52.231Z,95333.66
2018-11-22T13:10:21.424Z,95329.50
2018-11-22T13:12:50.831Z,95337.84
2018-11-22T13:15:21.373Z,95334.34
2018-11-22T13:17:50.671Z,95338.80
2018-11-22T13:20:21.193Z,95341.56
2018-11-22T13:22:50.560Z,95344.34
2018-11-22T13:25:20.963Z,95341.74
2018-11-22T13:27:50.651Z,95348.88
2018-11-22T13:30:21.391Z,95353.08
2018-11-22T13:32:51.516Z,95355.59
2018-11-22T13:35:21.326Z,95350.11
2018-11-22T13:37:51.555Z,95351.84
2018-11-22T13:40:20.890Z,95358.52
2018-11-22T13:42:51.050Z,95363.75
2018-11-22T13:45:23.548Z,95356.91
2018-11-22T13:47:53.691Z,95351.63
2018-11-22T13:50:25.472Z,95359.89
2018-11-22T13:52:56.094Z,95360.08
2018-11-22T13:55:25.343Z,95361.52
2018-11-22T13:57:54.803Z,95368.09
2018-11-22T14:00:26.307Z,95362.62
2018-11-22T14:02:57.043Z,95360.88
2018-11-22T14:05:26.358Z,95365.14
2018-11-22T14:07:55.678Z,95365.81
2018-11-22T14:10:24.956Z,95361.21
2018-11-22T14:12:54.373Z,95364.78
2018-11-22T14:15:28.048Z,95371.00
2018-11-22T14:17:58.789Z,95368.43
2018-11-22T14:20:29.671Z,95368.30
2018-11-22T14:22:58.928Z,95373.30
2018-11-22T14:25:28.225Z,95369.06
2018-11-22T14:27:57.194Z,95377.73
2018-11-22T14:30:28.062Z,95374.84
2018-11-22T14:32:57.374Z,95382.41
2018-11-22T14:35:27.675Z,95377.82
2018-11-22T14:37:57.109Z,95381.16
2018-11-22T14:40:28.761Z,95378.70
2018-11-22T14:42:58.163Z,95377.88
2018-11-22T14:45:27.955Z,95384.77
2018-11-22T14:47:58.526Z,95387.19
2018-11-22T14:50:29.643Z,95381.28
2018-11-22T14:53:09.336Z,95393.67
2018-11-22T14:55:38.909Z,95386.34
2018-11-22T14:58:08.431Z,95397.67
2018-11-22T15:00:37.891Z,95392.45
2018-11-22T15:03:07.286Z,95400.61
2018-11-22T15:05:36.661Z,95402.81
2018-11-22T15:08:06.271Z,95404.83
2018-11-22T15:10:35.470Z,95404.97
2018-11-22T15:13:04.767Z,95403.61
2018-11-22T15:15:34.277Z,95409.81
2018-11-22T15:18:03.514Z,95416.75
2018-11-22T15:20:32.707Z,95408.98
2018-11-22T15:23:01.936Z,95421.17
2018-11-22T15:25:31.351Z,95414.23
2018-11-22T15:28:00.637Z,95417.98
2018-11-22T15:30:30.390Z,95417.86
2018-11-22T15:32:59.880Z,95416.12
2018-11-22T15:35:30.073Z,95422.33
2018-11-22T15:37:59.645Z,95425.30
2018-11-22T15:40:28.860Z,95429.06
2018-11-22T15:42:59.341Z,95426.01
2018-11-22T15:45:34.862Z,95425.19
2018-11-22T15:47:58.635Z,95439.03
2018-11-22T15:50:28.678Z,95440.08
2018-11-22T15:52:58.163Z,95441.58
2018-11-22T15:55:27.773Z,95433.23
2018-11-22T15:57:58.455Z,95442.34
2018-11-22T16:00:29.031Z,95426.69
2018-11-22T16:02:58.532Z,95442.81
2018-11-22T16:05:28.518Z,95442.09
2018-11-22T16:07:57.745Z,95447.55
2018-11-22T16:10:28.292Z,95446.89
2018-11-22T16:12:59.091Z,95454.25
2018-11-22T16:15:35.768Z,95450.85
2018-11-22T16:18:05.047Z,95452.77
2018-11-22T16:20:34.195Z,95462.22
2018-11-22T16:23:03.621Z,95458.98
2018-11-22T16:25:32.895Z,95462.04
2018-11-22T16:28:02.316Z,95462.56
2018-11-22T16:30:32.368Z,95468.96
2018-11-22T16:33:01.528Z,95467.14
2018-11-22T16:35:33.516Z,95475.36
2018-11-22T16:38:00.023Z,95480.08
2018-11-22T16:40:29.917Z,95477.58
2018-11-22T16:43:00.668Z,95481.50
2018-11-22T16:45:31.272Z,95486.27
2018-11-22T16:48:02.137Z,95491.11
2018-11-22T16:50:32.098Z,95492.32
2018-11-22T16:53:01.117Z,95494.01
2018-11-22T16:55:30.655Z,95489.33
2018-11-22T16:58:00.967Z,95502.65
2018-11-22T17:00:31.743Z,95498.81
2018-11-22T17:03:02.365Z,95502.60
2018-11-22T17:05:31.675Z,95501.05
2018-11-22T17:08:01.778Z,95502.63
2018-11-22T17:10:31.864Z,95502.60
2018-11-22T17:13:01.950Z,95499.83
2018-11-22T17:15:32.628Z,95502.95
2018-11-22T17:18:02.008Z,95505.08
2018-11-22T17:20:31.895Z,95506.25
2018-11-22T17:23:01.607Z,95511.50
2018-11-22T17:25:32.082Z,95511.55
2018-11-22T17:28:02.868Z,95508.59
2018-11-22T17:30:33.475Z,95507.77
2018-11-22T17:33:02.459Z,95512.77
2018-11-22T17:35:32.424Z,95522.76
2018-11-22T17:38:02.755Z,95517.56
2018-11-22T17:40:34.584Z,95524.75
2018-11-22T17:43:03.860Z,95523.30
2018-11-22T17:45:34.341Z,95525.52
2018-11-22T17:48:04.158Z,95525.66
2018-11-22T17:50:35.375Z,95529.95
2018-11-22T17:53:05.238Z,95533.48
2018-11-22T17:55:35.000Z,95530.81
2018-11-22T17:58:04.324Z,95531.15
2018-11-22T18:00:36.787Z,95529.36
2018-11-22T18:03:06.748Z,95529.65
2018-11-22T18:05:36.107Z,95533.72
2018-11-22T18:08:05.690Z,95534.07
2018-11-22T18:10:36.415Z,95533.67
2018-11-22T18:13:05.646Z,95529.70
2018-11-22T18:15:37.720Z,95533.88
2018-11-22T18:18:06.983Z,95534.02
2018-11-22T18:20:36.451Z,95536.11
2018-11-22T18:23:06.499Z,95534.94
2018-11-22T18:25:34.915Z,95530.33
2018-11-22T18:28:04.652Z,95533.72
2018-11-22T18:30:34.603Z,95534.02
2018-11-22T18:33:06.414Z,95536.28
2018-11-22T18:35:35.606Z,95533.56
2018-11-22T18:38:04.978Z,95535.45
2018-11-22T18:40:35.784Z,95538.31
2018-11-22T18:43:05.151Z,95539.77
2018-11-22T18:45:35.853Z,95537.45
2018-11-22T18:48:06.152Z,95540.63
2018-11-22T18:50:35.943Z,95547.77
2018-11-22T18:53:05.333Z,95541.42
2018-11-22T18:55:34.966Z,95540.92
2018-11-22T18:58:04.354Z,95543.11
2018-11-22T19:00:34.874Z,95540.66
2018-11-22T19:03:05.555Z,95546.49
2018-11-22T19:05:34.763Z,95535.80
2018-11-22T19:08:04.111Z,95546.62
2018-11-22T19:10:34.655Z,95549.27
2018-11-22T19:13:05.208Z,95560.19
2018-11-22T19:15:36.079Z,95556.12
2018-11-22T19:18:05.787Z,95550.48
2018-11-22T19:20:37.071Z,95554.84
2018-11-22T19:23:07.308Z,95554.27
2018-11-22T19:25:36.686Z,95549.27
2018-11-22T19:28:06.614Z,95558.73
2018-11-22T19:30:37.656Z,95551.83
2018-11-22T19:33:08.079Z,95557.98
2018-11-22T19:35:42.795Z,95557.74
2018-11-22T19:38:12.666Z,95559.74
2018-11-22T19:40:42.851Z,95565.82
2018-11-22T19:43:12.375Z,95565.72
2018-11-22T19:45:42.986Z,95566.41
2018-11-22T19:48:12.443Z,95568.94
2018-11-22T19:50:41.544Z,95568.16
2018-11-22T19:53:12.190Z,95562.03
2018-11-22T19:55:42.056Z,95562.75
2018-11-22T19:58:12.564Z,95567.36
2018-11-22T20:00:41.769Z,95565.95
2018-11-22T20:03:11.487Z,95564.59
2018-11-22T20:05:41.651Z,95561.05
2018-11-22T20:08:13.401Z,95570.99
2018-11-22T20:10:43.660Z,95555.85
2018-11-22T20:13:12.906Z,95564.97
2018-11-22T20:15:42.286Z,95563.95
2018-11-22T20:18:11.946Z,95569.20
2018-11-22T20:20:41.550Z,95570.52
2018-11-22T20:23:10.816Z,95566.44
2018-11-22T20:25:40.212Z,95569.16
2018-11-22T20:28:09.685Z,95582.19
2018-11-22T20:30:40.467Z,95581.89
2018-11-22T20:33:09.727Z,95582.19
2018-11-22T20:35:39.323Z,95584.11
2018-11-22T20:38:08.667Z,95581.09
2018-11-22T20:40:37.833Z,95583.17
2018-11-22T20:43:07.498Z,95586.88
2018-11-22T20:45:40.821Z,95583.42
2018-11-22T20:48:07.403Z,95585.77
2018-11-22T20:50:37.313Z,95589.31
2018-11-22T20:53:06.944Z,95584.70
2018-11-22T20:55:37.474Z,95590.34
2018-11-22T20:58:07.489Z,95588.87
2018-11-22T21:00:38.214Z,95588.31
2018-11-22T21:03:07.488Z,95596.26
2018-11-22T21:05:36.884Z,95598.46
2018-11-22T21:08:06.083Z,95599.08
2018-11-22T21:10:35.582Z,95595.98
2018-11-22T21:13:04.964Z,95594.67
2018-11-22T21:15:34.651Z,95599.92
2018-11-22T21:18:05.377Z,95596.27
2018-11-22T21:20:38.819Z,95596.85
2018-11-22T21:23:08.057Z,95591.41
2018-11-22T21:28:02.845Z,95592.05
2018-11-22T21:30:33.185Z,95593.08
2018-11-22T21:33:02.749Z,95588.73
2018-11-22T21:35:32.031Z,95586.17
2018-11-22T21:38:02.019Z,95585.89
2018-11-22T21:40:31.549Z,95594.44
2018-11-22T21:43:00.790Z,95588.65
2018-11-22T21:45:30.562Z,95585.74
2018-11-22T21:47:59.831Z,95581.17
2018-11-22T21:50:29.789Z,95582.58
2018-11-22T21:52:59.179Z,95583.22
2018-11-22T21:55:29.004Z,95583.40
2018-11-22T21:57:59.583Z,95580.16
2018-11-22T22:00:32.637Z,95580.79
2018-11-22T22:03:04.103Z,95576.70
2018-11-22T22:05:33.458Z,95579.76
2018-11-22T22:08:02.645Z,95583.25
2018-11-22T22:10:31.875Z,95583.97
2018-11-22T22:13:01.127Z,95582.38
2018-11-22T22:15:31.270Z,95581.36
2018-11-22T22:18:00.615Z,95583.34
2018-11-22T22:20:31.320Z,95588.64
2018-11-22T22:23:00.648Z,95590.91
2018-11-22T22:25:30.479Z,95587.13
2018-11-22T22:28:00.036Z,95583.95
2018-11-22T22:30:30.919Z,95578.38
2018-11-22T22:33:01.518Z,95580.46
2018-11-22T22:35:30.784Z,95579.05
2018-11-22T22:38:00.168Z,95573.91
2018-11-22T22:40:30.160Z,95578.48
2018-11-22T22:42:59.778Z,95576.16
2018-11-22T22:45:30.358Z,95577.97
2018-11-22T22:47:59.672Z,95584.61
2018-11-22T22:50:29.639Z,95584.66
2018-11-22T22:52:59.761Z,95584.67
2018-11-22T22:55:29.288Z,95580.79
2018-11-22T22:57:58.400Z,95580.34
2018-11-22T23:00:33.552Z,95581.02
2018-11-22T23:03:04.934Z,95582.75
2018-11-22T23:05:34.523Z,95581.02
2018-11-22T23:08:03.786Z,95580.03
2018-11-22T23:10:32.998Z,95572.59
2018-11-22T23:13:02.748Z,95584.59
2018-11-22T23:15:32.417Z,95583.95
2018-11-22T23:18:01.750Z,95586.67
2018-11-22T23:20:32.597Z,95582.73
2018-11-22T23:23:01.906Z,95587.20
2018-11-22T23:25:31.163Z,95590.32
2018-11-22T23:28:00.595Z,95588.21
2018-11-22T23:30:31.042Z,95588.70
2018-11-22T23:33:02.077Z,95588.45
2018-11-22T23:35:31.246Z,95589.09
2018-11-22T23:38:00.564Z,95587.39
2018-11-22T23:40:30.868Z,95591.36
2018-11-22T23:42:59.871Z,95587.41
2018-11-22T23:45:30.273Z,95581.41
2018-11-22T23:47:59.550Z,95592.32
2018-11-22T23:50:30.187Z,95598.30
2018-11-22T23:53:00.560Z,95594.05
2018-11-22T23:55:29.746Z,95599.95
2018-11-22T23:57:58.954Z,95594.83
